Language selection

My Weather Profile Weather Topics  | 

Western Lake Superior: Past 24 Hour Conditions

 

Little Flatland Island

03:00 PM EDT 20 October 2021
Disclaimer

This table is a summary of hourly weather conditions for the past 24 hours.
Please note that these observations might not always be representative of weather conditions over their associated marine area.

Date / Time
(EDT)
Wind(knots) Conditions Visibility(km) Pressure(kPa) Air tempC) Relative humidity(%) Dew pointC)
20 October 2021
15:00 NNW 7 N/A N/A 102.2 4 71 -1
14:00 NNW 11 N/A N/A 102.3 4 73 0
13:00 NNW 9 N/A N/A 102.3 4 70 -1
12:00 N 13 N/A N/A 102.4 3 78 0
11:00 NNE 11 N/A N/A 102.4 3 79 0
10:00 NNE 13 N/A N/A 102.4 4 80 0
9:00 NE 10 gust 15 N/A N/A 102.4 4 79 0
8:00 NE 12 N/A N/A 102.4 4 82 1
7:00 NNE 12 N/A N/A 102.4 4 80 1
6:00 NNE 13 gust 18 N/A N/A 102.3 4 79 1
5:00 NNE 15 gust 22 N/A N/A 102.3 5 79 1
4:00 NNE 20 N/A N/A 102.2 6 82 3
3:00 NNE 19 gust 24 N/A N/A 102.2 6 82 4
2:00 NNE 18 N/A N/A 102.1 7 79 3
1:00 NNE 18 N/A N/A 102.1 7 81 4
0:00 NNE 19 N/A N/A 102.0 8 83 5
19 October 2021
23:00 NNE 19 N/A N/A 102.0 8 87 6
22:00 NNE 21 gust 26 N/A N/A 101.9 8 86 6
21:00 NNE 21 N/A N/A 101.8 9 84 6
20:00 NNE 21 N/A N/A 101.7 9 86 7
19:00 N 21 gust 26 N/A N/A 101.6 10 88 8
18:00 N 23 N/A N/A 101.4 10 87 8
17:00 NNW 23 gust 29 N/A N/A 101.3 12 85 9
16:00 WNW 8 N/A N/A 101.1 17 64 10
15:00 NE 6 N/A N/A 101.1 15 77 11

Zoom-in to make a selection

Map of Great Lakes - Lake Superior marine weather areas Mid Superior - 45001 East Superior - 45004 West Superior - 45006 Slate Island - 45136 Lake Of the Woods - 45148 Kenora Airport Royal Island Armstrong Airport Caribou Island Marathon Airport Pukaskwa National Park Thunder Bay Airport Welcome Island Little Flatland Island Sault Ste. Marie Airport Wawa Airport
Legend:
buoy Buoy
land station Land Station

Great Lakes - Lake Superior Area

Another Region

What we are doing

Date modified: